createdAt,value
2022-08-03T00:00:33.329Z,80.94
2022-08-03T00:03:04.850Z,80.98
2022-08-03T00:05:33.833Z,80.93
2022-08-03T00:08:01.903Z,80.97
2022-08-03T00:10:30.399Z,80.96
2022-08-03T00:12:58.307Z,81.14
2022-08-03T00:15:26.422Z,81.36
2022-08-03T00:17:54.420Z,81.19
2022-08-03T00:20:22.701Z,81.44
2022-08-03T00:22:50.923Z,81.69
2022-08-03T00:25:19.811Z,81.50
2022-08-03T00:27:48.330Z,81.93
2022-08-03T00:30:16.883Z,82.02
2022-08-03T00:32:45.612Z,81.82
2022-08-03T00:35:32.517Z,81.78
2022-08-03T00:38:01.776Z,81.76
2022-08-03T00:40:29.920Z,81.75
2022-08-03T00:43:03.840Z,81.78
2022-08-03T00:45:36.114Z,81.73
2022-08-03T00:48:06.114Z,81.71
2022-08-03T00:50:48.449Z,81.86
2022-08-03T00:53:20.085Z,81.82
2022-08-03T00:55:48.048Z,81.72
2022-08-03T00:58:16.314Z,81.65
2022-08-03T01:00:44.259Z,81.66
2022-08-03T01:03:12.285Z,81.60
2022-08-03T01:05:52.521Z,81.66
2022-08-03T01:08:32.157Z,81.87
2022-08-03T01:11:11.838Z,81.94
2022-08-03T01:14:04.597Z,81.85
2022-08-03T01:16:54.245Z,81.89
2022-08-03T01:19:46.043Z,81.91
2022-08-03T01:22:35.630Z,81.79
2022-08-03T01:25:20.018Z,81.64
2022-08-03T01:27:56.963Z,81.60
2022-08-03T01:30:31.780Z,81.78
2022-08-03T01:33:05.352Z,81.97
2022-08-03T01:35:42.372Z,81.94
2022-08-03T01:38:27.706Z,81.83
2022-08-03T01:40:56.912Z,81.84
2022-08-03T01:44:27.211Z,81.88
2022-08-03T01:46:20.710Z,82.00
2022-08-03T01:48:49.814Z,82.13
2022-08-03T01:51:20.195Z,82.20
2022-08-03T01:53:51.295Z,82.29
2022-08-03T01:56:20.418Z,82.34
2022-08-03T01:58:50.898Z,82.62
2022-08-03T02:01:21.747Z,82.99
2022-08-03T02:03:56.650Z,82.99
2022-08-03T02:06:32.944Z,82.94
2022-08-03T02:09:23.741Z,82.65
2022-08-03T02:11:53.415Z,82.64
2022-08-03T02:14:23.258Z,82.76
2022-08-03T02:16:52.009Z,82.71
2022-08-03T02:19:20.223Z,82.74
2022-08-03T02:21:57.431Z,82.78
2022-08-03T02:24:31.515Z,82.74
2022-08-03T02:27:01.371Z,82.77
2022-08-03T02:29:39.418Z,82.88
2022-08-03T02:32:17.647Z,82.87
2022-08-03T02:34:50.509Z,82.83
2022-08-03T02:37:20.182Z,82.83
2022-08-03T02:39:52.265Z,82.67
2022-08-03T02:42:23.366Z,82.61
2022-08-03T02:44:55.546Z,82.73
2022-08-03T02:47:27.350Z,82.87
2022-08-03T02:49:59.225Z,83.02
2022-08-03T02:52:30.080Z,83.09
2022-08-03T02:55:02.506Z,83.22
2022-08-03T02:57:32.006Z,83.26
2022-08-03T03:00:00.352Z,83.25
2022-08-03T03:02:29.396Z,83.32
2022-08-03T03:05:55.201Z,83.27
2022-08-03T03:07:51.906Z,83.26
2022-08-03T03:10:26.031Z,83.25
2022-08-03T03:12:58.024Z,83.26
2022-08-03T03:15:28.017Z,83.35
2022-08-03T03:17:57.467Z,83.37
2022-08-03T03:20:29.358Z,83.44
2022-08-03T03:23:00.744Z,83.48
2022-08-03T03:25:32.158Z,83.54
2022-08-03T03:28:02.037Z,83.65
2022-08-03T03:30:30.290Z,83.71
2022-08-03T03:32:58.865Z,83.84
2022-08-03T03:35:28.034Z,84.08
2022-08-03T03:37:56.751Z,84.17
2022-08-03T03:40:25.247Z,84.35
2022-08-03T03:42:53.260Z,84.52
2022-08-03T03:45:22.159Z,84.68
2022-08-03T03:47:50.430Z,84.79
2022-08-03T03:50:19.155Z,84.95
2022-08-03T03:52:47.031Z,85.12
2022-08-03T03:55:18.561Z,85.19
2022-08-03T03:57:47.017Z,85.38
2022-08-03T04:00:16.652Z,85.52
2022-08-03T04:02:45.800Z,85.72
2022-08-03T04:05:33.254Z,85.87
2022-08-03T04:08:27.411Z,85.94
2022-08-03T04:11:16.676Z,86.05
2022-08-03T04:13:50.636Z,86.11
2022-08-03T04:16:21.440Z,86.24
2022-08-03T04:18:54.169Z,86.42
2022-08-03T04:21:23.673Z,86.51
2022-08-03T04:23:55.380Z,86.69
2022-08-03T04:26:28.531Z,86.84
2022-08-03T04:28:58.714Z,86.91
2022-08-03T04:31:28.190Z,86.82
2022-08-03T04:33:57.048Z,86.83
2022-08-03T04:36:32.588Z,86.74
2022-08-03T04:39:04.123Z,86.78
2022-08-03T04:41:32.673Z,86.80
2022-08-03T04:44:23.746Z,86.66
2022-08-03T04:46:58.120Z,86.56
2022-08-03T04:49:26.984Z,86.38
2022-08-03T04:51:54.934Z,86.32
2022-08-03T04:54:22.758Z,86.30
2022-08-03T04:56:50.714Z,86.16
2022-08-03T04:59:18.424Z,85.89
2022-08-03T05:01:46.667Z,85.70
2022-08-03T05:04:17.041Z,85.81
2022-08-03T05:06:48.107Z,85.84
2022-08-03T05:09:49.848Z,85.84
2022-08-03T05:12:11.197Z,85.55
2022-08-03T05:14:39.677Z,85.46
2022-08-03T05:17:09.067Z,85.38
2022-08-03T05:19:36.892Z,85.53
2022-08-03T05:22:04.822Z,85.56
2022-08-03T05:24:32.669Z,85.18
2022-08-03T05:27:00.524Z,84.93
2022-08-03T05:29:28.268Z,84.73
2022-08-03T05:31:56.531Z,84.56
2022-08-03T05:34:24.498Z,84.35
2022-08-03T05:36:52.491Z,84.17
2022-08-03T05:39:20.410Z,84.36
2022-08-03T05:41:48.199Z,84.62
2022-08-03T05:44:16.329Z,84.18
2022-08-03T05:46:44.232Z,84.05
2022-08-03T05:49:12.168Z,83.85
2022-08-03T05:51:40.566Z,83.45
2022-08-03T05:54:08.345Z,83.44
2022-08-03T05:56:36.758Z,83.39
2022-08-03T05:59:28.693Z,83.44
2022-08-03T06:01:52.891Z,83.76
2022-08-03T06:04:21.180Z,83.84
2022-08-03T06:06:50.732Z,83.37
2022-08-03T06:09:20.573Z,83.00
2022-08-03T06:11:48.752Z,82.43
2022-08-03T06:14:16.549Z,82.19
2022-08-03T06:16:44.303Z,81.26
2022-08-03T06:19:12.396Z,81.44
2022-08-03T06:21:40.232Z,81.00
2022-08-03T06:24:08.812Z,81.38
2022-08-03T06:26:37.148Z,81.27
2022-08-03T06:29:04.961Z,81.46
2022-08-03T06:31:36.825Z,81.36
2022-08-03T06:34:32.275Z,80.79
2022-08-03T06:37:01.980Z,80.84
2022-08-03T06:39:30.625Z,80.66
2022-08-03T06:41:58.834Z,80.47
2022-08-03T06:44:26.836Z,80.13
2022-08-03T06:46:55.077Z,79.98
2022-08-03T06:49:23.117Z,79.50
2022-08-03T06:52:05.059Z,78.53
2022-08-03T06:54:35.751Z,78.50
2022-08-03T06:57:04.198Z,77.88
2022-08-03T07:00:10.938Z,77.31
2022-08-03T07:02:20.478Z,77.44
2022-08-03T07:04:49.256Z,77.42
2022-08-03T07:07:17.896Z,76.67
2022-08-03T07:09:57.677Z,76.28
2022-08-03T07:12:29.985Z,75.22
2022-08-03T07:15:01.778Z,75.38
2022-08-03T07:17:32.401Z,75.98
2022-08-03T07:20:03.950Z,76.42
2022-08-03T07:22:31.785Z,75.54
2022-08-03T07:24:59.716Z,76.05
2022-08-03T07:27:28.747Z,73.99
2022-08-03T07:30:07.468Z,74.01
2022-08-03T07:32:49.898Z,72.88
2022-08-03T07:35:24.916Z,72.61
2022-08-03T07:37:55.044Z,73.24
2022-08-03T07:40:23.363Z,73.75
2022-08-03T07:42:55.104Z,73.33
2022-08-03T07:45:24.069Z,72.63
2022-08-03T07:47:53.454Z,72.41
2022-08-03T07:50:24.553Z,72.25
2022-08-03T07:52:53.777Z,69.83
2022-08-03T07:55:25.599Z,68.96
2022-08-03T07:58:12.596Z,67.97
2022-08-03T08:00:40.605Z,65.95
2022-08-03T08:03:08.687Z,65.93
2022-08-03T08:05:39.448Z,65.38
2022-08-03T08:08:07.568Z,66.10
2022-08-03T08:10:37.437Z,66.04
2022-08-03T08:13:05.705Z,66.37
2022-08-03T08:15:33.802Z,66.45
2022-08-03T08:18:02.957Z,66.47
2022-08-03T08:20:38.010Z,66.37
2022-08-03T08:23:19.989Z,66.40
2022-08-03T08:25:56.988Z,65.23
2022-08-03T08:28:32.783Z,65.83
2022-08-03T08:31:11.066Z,65.55
2022-08-03T08:36:29.369Z,65.64
2022-08-03T08:38:57.811Z,65.62
2022-08-03T08:41:32.110Z,63.32
2022-08-03T08:44:01.688Z,60.97
2022-08-03T08:46:32.938Z,60.78
2022-08-03T08:49:04.833Z,59.91
2022-08-03T08:51:54.915Z,60.45
2022-08-03T08:54:27.090Z,60.70
2022-08-03T08:56:57.392Z,60.41
2022-08-03T08:59:49.309Z,60.13
2022-08-03T09:02:16.804Z,59.38
2022-08-03T09:04:54.114Z,60.32
2022-08-03T09:07:22.238Z,61.30
2022-08-03T09:10:10.026Z,60.27
2022-08-03T09:12:42.375Z,60.14
2022-08-03T09:15:24.612Z,61.24
2022-08-03T09:18:00.182Z,59.98
2022-08-03T09:20:32.775Z,59.52
2022-08-03T09:23:59.640Z,59.30
2022-08-03T09:26:01.867Z,57.96
2022-08-03T09:28:59.736Z,57.46
2022-08-03T09:31:52.249Z,58.20
2022-08-03T09:34:26.302Z,58.31
2022-08-03T09:36:55.928Z,57.06
2022-08-03T09:39:40.424Z,55.66
2022-08-03T09:42:17.412Z,54.43
2022-08-03T09:44:48.435Z,56.38
2022-08-03T09:47:28.830Z,55.95
2022-08-03T09:50:07.082Z,55.23
2022-08-03T09:52:49.881Z,54.36
2022-08-03T09:56:34.962Z,52.58
2022-08-03T09:58:11.683Z,54.43
2022-08-03T10:01:24.251Z,53.86
2022-08-03T10:04:04.220Z,54.16
2022-08-03T10:06:33.273Z,53.15
2022-08-03T10:09:12.876Z,51.94
2022-08-03T10:11:42.686Z,52.97
2022-08-03T10:14:19.484Z,52.60
2022-08-03T10:16:49.082Z,53.17
2022-08-03T10:19:17.457Z,52.77
2022-08-03T10:21:53.861Z,51.28
2022-08-03T10:24:27.283Z,51.44
2022-08-03T10:27:09.635Z,52.32
2022-08-03T10:29:42.454Z,49.73
2022-08-03T10:32:18.192Z,50.04
2022-08-03T10:34:50.389Z,49.90
2022-08-03T10:37:21.609Z,50.68
2022-08-03T10:39:57.506Z,50.49
2022-08-03T10:42:27.489Z,50.75
2022-08-03T10:45:04.644Z,51.95
2022-08-03T10:47:34.555Z,52.05
2022-08-03T10:50:04.087Z,51.23
2022-08-03T10:52:38.163Z,50.82
2022-08-03T10:55:54.029Z,49.41
2022-08-03T10:58:37.323Z,50.56
2022-08-03T11:01:07.571Z,50.13
2022-08-03T11:03:55.469Z,50.30
2022-08-03T11:06:37.219Z,49.33
2022-08-03T11:09:11.735Z,49.17
2022-08-03T11:11:45.253Z,50.38
2022-08-03T11:14:19.154Z,50.35
2022-08-03T11:16:50.175Z,50.02
2022-08-03T11:19:22.749Z,49.63
2022-08-03T11:21:56.859Z,49.92
2022-08-03T11:24:36.854Z,49.87
2022-08-03T11:27:27.362Z,49.78
2022-08-03T11:30:07.733Z,49.64
2022-08-03T11:32:46.713Z,48.58
2022-08-03T11:35:18.566Z,49.96
2022-08-03T11:38:04.395Z,50.20
2022-08-03T11:40:46.904Z,48.54
2022-08-03T11:43:31.261Z,49.79
2022-08-03T11:46:05.466Z,49.60
2022-08-03T11:48:45.138Z,49.36
2022-08-03T11:51:25.595Z,48.74
2022-08-03T11:53:59.452Z,48.92
2022-08-03T11:56:28.321Z,49.05
2022-08-03T11:59:18.875Z,48.07
2022-08-03T12:01:46.906Z,48.02
2022-08-03T12:04:16.491Z,49.45
2022-08-03T12:07:04.975Z,49.44
2022-08-03T12:09:36.253Z,48.42
2022-08-03T12:12:04.755Z,48.31
2022-08-03T12:14:49.496Z,47.91
2022-08-03T12:17:20.911Z,48.16
2022-08-03T12:19:49.445Z,48.83
2022-08-03T12:22:34.713Z,48.67
2022-08-03T12:25:03.310Z,48.66
2022-08-03T12:27:31.165Z,48.04
2022-08-03T12:30:01.638Z,47.62
2022-08-03T12:32:31.164Z,47.37
2022-08-03T12:35:01.557Z,48.65
2022-08-03T12:37:31.366Z,49.10
2022-08-03T12:40:09.429Z,49.05
2022-08-03T12:42:39.711Z,49.59
2022-08-03T12:45:28.036Z,48.16
2022-08-03T12:48:01.795Z,47.28
2022-08-03T12:50:34.772Z,48.04
2022-08-03T12:53:08.012Z,47.56
2022-08-03T12:55:56.971Z,48.98
2022-08-03T12:58:34.234Z,49.34
2022-08-03T13:01:09.940Z,46.95
2022-08-03T13:03:50.171Z,47.54
2022-08-03T13:06:26.008Z,48.11
2022-08-03T13:09:06.047Z,47.43
2022-08-03T13:11:57.293Z,47.21
2022-08-03T13:14:23.756Z,46.52
2022-08-03T13:16:51.536Z,47.61
2022-08-03T13:19:19.422Z,47.58
2022-08-03T13:22:03.354Z,48.08
2022-08-03T13:24:33.804Z,47.97
2022-08-03T13:28:01.233Z,47.49
2022-08-03T13:29:51.333Z,47.84
2022-08-03T13:32:22.348Z,46.91
2022-08-03T13:34:51.016Z,46.45
2022-08-03T13:37:19.161Z,47.35
2022-08-03T13:39:57.422Z,47.58
2022-08-03T13:42:34.704Z,48.82
2022-08-03T13:45:04.404Z,48.62
2022-08-03T13:47:32.796Z,47.76
2022-08-03T13:50:03.100Z,47.46
2022-08-03T13:52:32.844Z,46.88
2022-08-03T13:55:01.804Z,47.82
2022-08-03T13:58:02.560Z,48.23
2022-08-03T14:00:27.319Z,46.65
2022-08-03T14:03:12.818Z,46.67
2022-08-03T14:05:43.949Z,45.74
2022-08-03T14:08:12.791Z,47.04
2022-08-03T14:10:43.258Z,46.89
2022-08-03T14:13:16.804Z,46.70
2022-08-03T14:15:50.140Z,46.10
2022-08-03T14:18:28.365Z,46.28
2022-08-03T14:21:06.299Z,45.77
2022-08-03T14:23:41.892Z,45.73
2022-08-03T14:26:10.699Z,45.72
2022-08-03T14:28:38.626Z,45.98
2022-08-03T14:31:08.392Z,44.72
2022-08-03T14:33:54.889Z,45.48
2022-08-03T14:36:22.990Z,45.09
2022-08-03T14:38:51.083Z,45.77
2022-08-03T14:41:20.342Z,46.13
2022-08-03T14:44:01.234Z,45.95
2022-08-03T14:46:31.082Z,46.03
2022-08-03T14:50:31.972Z,45.77
2022-08-03T14:51:53.424Z,46.14
2022-08-03T14:54:22.974Z,46.95
2022-08-03T14:56:51.296Z,45.91
2022-08-03T14:59:19.090Z,45.97
2022-08-03T15:02:02.722Z,45.98
2022-08-03T15:04:35.014Z,46.05
2022-08-03T15:07:02.984Z,45.23
2022-08-03T15:09:31.070Z,45.42
2022-08-03T15:11:59.278Z,44.96
2022-08-03T15:14:28.420Z,45.11
2022-08-03T15:17:01.272Z,45.06
2022-08-03T15:20:01.365Z,45.31
2022-08-03T15:22:20.530Z,45.82
2022-08-03T15:24:52.753Z,45.32
2022-08-03T15:27:21.153Z,45.40
2022-08-03T15:30:08.094Z,44.86
2022-08-03T15:32:37.314Z,45.10
2022-08-03T15:35:05.429Z,45.23
2022-08-03T15:37:33.255Z,45.47
2022-08-03T15:40:01.482Z,46.44
2022-08-03T15:42:31.147Z,45.51
2022-08-03T15:44:59.581Z,45.34
2022-08-03T15:47:27.772Z,44.59
2022-08-03T15:49:55.771Z,44.12
2022-08-03T15:52:23.742Z,44.27
2022-08-03T15:54:54.295Z,43.56
2022-08-03T15:57:22.886Z,44.18
2022-08-03T15:59:51.014Z,44.49
2022-08-03T16:02:19.266Z,44.51
2022-08-03T16:04:47.111Z,44.70
2022-08-03T16:07:15.956Z,45.75
2022-08-03T16:09:44.334Z,45.82
2022-08-03T16:12:15.863Z,46.02
2022-08-03T16:15:15.831Z,45.29
2022-08-03T16:17:43.765Z,45.78
2022-08-03T16:20:30.738Z,45.06
2022-08-03T16:23:07.739Z,44.66
2022-08-03T16:25:40.108Z,45.37
2022-08-03T16:28:13.824Z,45.46
2022-08-03T16:30:43.780Z,46.02
2022-08-03T16:33:17.070Z,47.04
2022-08-03T16:35:46.577Z,46.97
2022-08-03T16:38:18.787Z,46.57
2022-08-03T16:40:52.007Z,46.79
2022-08-03T16:43:25.128Z,46.48
2022-08-03T16:45:53.139Z,46.35
2022-08-03T16:48:21.031Z,46.33
2022-08-03T16:50:49.241Z,46.21
2022-08-03T16:53:33.240Z,46.78
2022-08-03T16:56:09.862Z,48.11
2022-08-03T16:58:46.528Z,48.81
2022-08-03T17:01:21.805Z,49.40
2022-08-03T17:04:02.504Z,49.72
2022-08-03T17:06:37.384Z,49.92
2022-08-03T17:09:19.064Z,51.00
2022-08-03T17:11:50.534Z,52.48
2022-08-03T17:14:22.860Z,52.83
2022-08-03T17:17:01.591Z,52.62
2022-08-03T17:19:35.011Z,53.55
2022-08-03T17:22:11.191Z,54.54
2022-08-03T17:24:44.639Z,54.58
2022-08-03T17:27:23.193Z,55.36
2022-08-03T17:30:09.716Z,55.52
2022-08-03T17:32:42.859Z,56.24
2022-08-03T17:35:21.315Z,56.49
2022-08-03T17:37:58.075Z,57.44
2022-08-03T17:40:31.715Z,58.13
2022-08-03T17:43:01.216Z,58.59
2022-08-03T17:45:53.030Z,58.83
2022-08-03T17:48:25.121Z,59.53
2022-08-03T17:51:00.354Z,59.97
2022-08-03T17:53:31.751Z,60.32
2022-08-03T17:56:46.322Z,60.78
2022-08-03T17:59:51.035Z,61.08
2022-08-03T18:02:51.979Z,61.34
2022-08-03T18:05:22.143Z,61.89
2022-08-03T18:08:00.855Z,62.66
2022-08-03T18:10:49.922Z,63.18
2022-08-03T18:13:24.465Z,63.63
2022-08-03T18:15:59.011Z,64.10
2022-08-03T18:18:37.070Z,64.32
2022-08-03T18:21:09.283Z,64.67
2022-08-03T18:23:46.093Z,64.84
2022-08-03T18:26:20.655Z,64.80
2022-08-03T18:28:53.138Z,65.20
2022-08-03T18:31:59.422Z,65.49
2022-08-03T18:34:32.454Z,65.67
2022-08-03T18:37:07.431Z,66.01
2022-08-03T18:39:50.375Z,66.27
2022-08-03T18:42:26.375Z,66.49
2022-08-03T18:44:56.387Z,66.65
2022-08-03T18:47:52.515Z,66.70
2022-08-03T18:50:30.670Z,66.81
2022-08-03T18:54:01.826Z,67.15
2022-08-03T18:56:50.088Z,67.34
2022-08-03T18:59:56.168Z,67.59
2022-08-03T19:02:32.711Z,67.99
2022-08-03T19:05:08.990Z,68.29
2022-08-03T19:07:40.593Z,68.46
2022-08-03T19:10:16.288Z,68.82
2022-08-03T19:12:58.785Z,69.23
2022-08-03T19:15:36.848Z,69.40
2022-08-03T19:18:12.007Z,69.61
2022-08-03T19:20:46.637Z,69.54
2022-08-03T19:23:16.441Z,69.97
2022-08-03T19:25:45.756Z,70.02
2022-08-03T19:28:17.115Z,70.83
2022-08-03T19:30:53.709Z,71.18
2022-08-03T19:33:24.567Z,71.11
2022-08-03T19:35:57.015Z,71.41
2022-08-03T19:38:28.983Z,71.72
2022-08-03T19:41:01.630Z,71.62
2022-08-03T19:43:49.436Z,71.58
2022-08-03T19:46:30.678Z,71.70
2022-08-03T19:49:20.277Z,71.89
2022-08-03T19:52:02.346Z,72.03
2022-08-03T19:54:45.829Z,72.09
2022-08-03T19:57:25.420Z,72.25
2022-08-03T19:59:56.229Z,72.42
2022-08-03T20:02:26.597Z,72.66
2022-08-03T20:04:57.633Z,72.90
2022-08-03T20:07:31.454Z,72.98
2022-08-03T20:10:02.004Z,73.07
2022-08-03T20:12:34.379Z,73.23
2022-08-03T20:15:12.046Z,73.44
2022-08-03T20:17:56.989Z,73.54
2022-08-03T20:20:31.510Z,73.50
2022-08-03T20:23:11.445Z,73.72
2022-08-03T20:25:48.839Z,73.71
2022-08-03T20:28:50.519Z,73.95
2022-08-03T20:31:36.295Z,74.14
2022-08-03T20:34:07.047Z,74.30
2022-08-03T20:36:38.151Z,74.44
2022-08-03T20:39:07.792Z,74.80
2022-08-03T20:41:36.160Z,74.87
2022-08-03T20:44:08.911Z,75.02
2022-08-03T20:46:53.102Z,75.21
2022-08-03T20:49:25.616Z,75.19
2022-08-03T20:51:54.578Z,75.42
2022-08-03T20:54:29.946Z,75.57
2022-08-03T20:57:04.488Z,75.53
2022-08-03T20:59:50.433Z,75.62
2022-08-03T21:02:30.019Z,76.05
2022-08-03T21:05:03.219Z,76.08
2022-08-03T21:08:05.369Z,76.25
2022-08-03T21:10:38.876Z,76.52
2022-08-03T21:13:17.822Z,76.72
2022-08-03T21:16:12.454Z,76.75
2022-08-03T21:18:49.911Z,76.91
2022-08-03T21:21:20.150Z,77.05
2022-08-03T21:23:54.442Z,77.17
2022-08-03T21:26:24.944Z,77.41
2022-08-03T21:28:57.129Z,77.61
2022-08-03T21:31:26.764Z,77.85
2022-08-03T21:34:03.714Z,78.03
2022-08-03T21:36:35.688Z,78.01
2022-08-03T21:39:06.325Z,77.73
2022-08-03T21:41:47.081Z,77.68
2022-08-03T21:44:29.052Z,77.79
2022-08-03T21:46:59.082Z,77.88
2022-08-03T21:50:07.021Z,77.84
2022-08-03T21:52:21.689Z,77.54
2022-08-03T21:54:54.272Z,77.51
2022-08-03T21:57:24.984Z,77.58
2022-08-03T22:00:05.614Z,77.57
2022-08-03T22:02:58.229Z,77.68
2022-08-03T22:05:28.934Z,77.67
2022-08-03T22:08:13.594Z,77.64
2022-08-03T22:10:44.483Z,77.54
2022-08-03T22:13:21.920Z,77.53
2022-08-03T22:16:06.069Z,77.32
2022-08-03T22:18:42.366Z,76.89
2022-08-03T22:21:13.703Z,76.71
2022-08-03T22:23:45.515Z,76.39
2022-08-03T22:26:32.444Z,76.04
2022-08-03T22:29:07.529Z,75.91
2022-08-03T22:31:58.258Z,75.41
2022-08-03T22:34:27.227Z,75.17
2022-08-03T22:37:00.970Z,74.94
2022-08-03T22:39:30.083Z,74.72
2022-08-03T22:42:01.449Z,74.44
2022-08-03T22:44:29.724Z,74.32
2022-08-03T22:46:58.487Z,73.97
2022-08-03T22:49:28.473Z,73.75
2022-08-03T22:51:57.255Z,73.59
2022-08-03T22:54:25.549Z,73.34
2022-08-03T22:56:53.619Z,73.18
2022-08-03T22:59:40.633Z,72.88
2022-08-03T23:02:21.342Z,72.71
2022-08-03T23:04:55.657Z,72.45
2022-08-03T23:10:25.006Z,71.87
2022-08-03T23:12:54.566Z,71.65
2022-08-03T23:15:29.392Z,71.39
2022-08-03T23:17:58.677Z,71.18
2022-08-03T23:20:27.086Z,70.87
2022-08-03T23:22:59.871Z,70.61
2022-08-03T23:25:28.681Z,70.54
2022-08-03T23:28:05.173Z,70.34
2022-08-03T23:30:37.490Z,70.20
2022-08-03T23:33:06.823Z,70.05
2022-08-03T23:36:27.677Z,69.99
2022-08-03T23:38:43.675Z,69.96
2022-08-03T23:41:12.864Z,69.80
2022-08-03T23:43:52.421Z,69.87
2022-08-03T23:46:22.887Z,69.85
2022-08-03T23:48:51.278Z,69.82
2022-08-03T23:51:26.134Z,69.88
2022-08-03T23:54:08.792Z,69.89
2022-08-03T23:56:51.605Z,69.93
2022-08-03T23:59:59.380Z,69.94
